createdAt,value
2017-09-11T00:00:33.683Z,19.17
2017-09-11T00:03:01.316Z,17.75
2017-09-11T00:05:28.956Z,19.70
2017-09-11T00:07:56.570Z,18.83
2017-09-11T00:10:24.164Z,19.65
2017-09-11T00:12:51.746Z,21.95
2017-09-11T00:15:19.425Z,25.67
2017-09-11T00:17:47.001Z,23.08
2017-09-11T00:20:14.584Z,20.70
2017-09-11T00:22:42.178Z,22.65
2017-09-11T00:25:09.789Z,23.48
2017-09-11T00:27:38.132Z,21.75
2017-09-11T00:30:05.750Z,22.55
2017-09-11T00:32:33.373Z,23.00
2017-09-11T00:35:00.990Z,22.15
2017-09-11T00:37:28.646Z,24.10
2017-09-11T00:39:56.231Z,23.92
2017-09-11T00:42:23.816Z,22.80
2017-09-11T00:44:51.431Z,22.10
2017-09-11T00:47:19.102Z,24.87
2017-09-11T00:49:46.730Z,24.30
2017-09-11T00:52:14.340Z,23.50
2017-09-11T00:54:41.981Z,24.50
2017-09-11T00:57:09.610Z,26.10
2017-09-11T00:59:37.270Z,26.70
2017-09-11T01:02:05.667Z,22.95
2017-09-11T01:04:33.254Z,23.77
2017-09-11T01:07:00.894Z,25.60
2017-09-11T01:09:28.503Z,23.38
2017-09-11T01:11:56.124Z,23.80
2017-09-11T01:14:23.774Z,24.80
2017-09-11T01:16:51.404Z,29.40
2017-09-11T01:19:19.049Z,24.50
2017-09-11T01:21:46.672Z,25.83
2017-09-11T01:24:14.318Z,23.75
2017-09-11T01:26:41.973Z,23.90
2017-09-11T01:29:09.623Z,24.37
2017-09-11T01:31:37.243Z,24.63
2017-09-11T01:34:04.876Z,25.60
2017-09-11T01:36:32.468Z,25.02
2017-09-11T01:39:00.052Z,24.42
2017-09-11T01:41:27.669Z,25.12
2017-09-11T01:43:55.292Z,26.73
2017-09-11T01:46:22.871Z,25.40
2017-09-11T01:48:50.490Z,26.35
2017-09-11T01:51:18.131Z,26.17
2017-09-11T01:53:45.762Z,25.05
2017-09-11T01:56:13.378Z,23.45
2017-09-11T01:58:40.973Z,23.85
2017-09-11T02:01:08.552Z,24.87
2017-09-11T02:03:36.178Z,22.37
2017-09-11T02:06:03.759Z,22.58
2017-09-11T02:08:31.388Z,22.25
2017-09-11T02:10:59.020Z,20.58
2017-09-11T02:13:26.645Z,21.75
2017-09-11T02:15:54.265Z,20.35
2017-09-11T02:18:21.943Z,20.85
2017-09-11T02:20:49.578Z,18.48
2017-09-11T02:23:17.205Z,18.65
2017-09-11T02:25:44.833Z,18.80
2017-09-11T02:28:12.454Z,17.90
2017-09-11T02:30:40.091Z,17.50
2017-09-11T02:33:07.754Z,19.60
2017-09-11T02:35:35.339Z,18.55
2017-09-11T02:38:02.919Z,17.67
2017-09-11T02:40:30.558Z,18.92
2017-09-11T02:42:58.157Z,17.27
2017-09-11T02:45:26.543Z,16.50
2017-09-11T02:47:54.178Z,17.90
2017-09-11T02:50:21.808Z,18.20
2017-09-11T02:52:49.458Z,19.17
2017-09-11T02:55:17.074Z,17.15
2017-09-11T02:57:44.664Z,15.45
2017-09-11T03:00:12.246Z,13.55
2017-09-11T03:02:39.836Z,13.45
2017-09-11T03:05:07.473Z,14.52
2017-09-11T03:07:35.112Z,13.07
2017-09-11T03:10:02.742Z,12.63
2017-09-11T03:12:30.366Z,11.98
2017-09-11T03:14:57.987Z,12.95
2017-09-11T03:17:25.609Z,10.65
2017-09-11T03:19:53.247Z,10.75
2017-09-11T03:22:20.878Z,11.85
2017-09-11T03:24:48.497Z,12.40
2017-09-11T03:27:16.083Z,12.05
2017-09-11T03:29:44.469Z,11.93
2017-09-11T03:32:12.087Z,10.98
2017-09-11T03:34:39.710Z,11.32
2017-09-11T03:37:07.297Z,10.85
2017-09-11T03:39:34.914Z,11.77
2017-09-11T03:42:02.496Z,12.32
2017-09-11T03:44:30.085Z,11.75
2017-09-11T03:46:57.727Z,11.75
2017-09-11T03:49:25.348Z,11.52
2017-09-11T03:51:52.938Z,10.60
2017-09-11T03:54:20.519Z,12.70
2017-09-11T03:56:48.174Z,15.10
2017-09-11T03:59:15.794Z,16.12
2017-09-11T04:01:44.203Z,17.90
2017-09-11T04:04:11.909Z,19.62
2017-09-11T04:06:39.544Z,19.50
2017-09-11T04:09:07.188Z,21.65
2017-09-11T04:11:34.768Z,20.10
2017-09-11T04:14:02.349Z,21.05
2017-09-11T04:16:29.935Z,23.40
2017-09-11T04:18:57.601Z,23.00
2017-09-11T04:21:25.225Z,28.95
2017-09-11T04:23:52.814Z,22.15
2017-09-11T04:26:20.397Z,24.80
2017-09-11T04:28:48.019Z,23.62
2017-09-11T04:31:15.638Z,22.55
2017-09-11T04:33:43.223Z,22.40
2017-09-11T04:36:10.848Z,20.65
2017-09-11T04:38:38.433Z,21.62
2017-09-11T04:41:06.118Z,20.83
2017-09-11T04:43:33.747Z,21.40
2017-09-11T04:46:01.394Z,21.85
2017-09-11T04:48:29.025Z,21.45
2017-09-11T04:50:57.416Z,23.08
2017-09-11T04:53:25.001Z,23.40
2017-09-11T04:55:52.628Z,21.85
2017-09-11T04:58:20.248Z,23.58
2017-09-11T05:00:48.006Z,23.77
2017-09-11T05:03:15.618Z,21.50
2017-09-11T05:05:43.281Z,22.23
2017-09-11T05:08:10.931Z,22.67
2017-09-11T05:10:38.547Z,22.30
2017-09-11T05:13:06.304Z,20.80
2017-09-11T05:15:33.938Z,21.30
2017-09-11T05:18:01.618Z,17.10
2017-09-11T05:20:29.247Z,16.77
2017-09-11T05:22:57.137Z,15.00
2017-09-11T05:25:24.759Z,15.18
2017-09-11T05:27:52.392Z,15.30
2017-09-11T05:30:20.566Z,14.45
2017-09-11T05:32:48.212Z,13.43
2017-09-11T05:35:15.867Z,13.70
2017-09-11T05:37:43.457Z,12.75
2017-09-11T05:40:11.085Z,13.20
2017-09-11T05:42:38.719Z,13.57
2017-09-11T05:45:06.356Z,14.20
2017-09-11T05:47:33.984Z,12.98
2017-09-11T05:50:01.634Z,14.48
2017-09-11T05:52:29.267Z,13.50
2017-09-11T05:54:56.910Z,13.33
2017-09-11T05:57:24.543Z,12.20
2017-09-11T05:59:52.176Z,12.10
2017-09-11T06:02:19.805Z,12.90
2017-09-11T06:04:47.438Z,12.83
2017-09-11T06:07:15.080Z,12.63
2017-09-11T06:09:42.678Z,11.50
2017-09-11T06:12:10.310Z,11.45
2017-09-11T06:14:37.926Z,16.33
2017-09-11T06:17:05.525Z,12.45
2017-09-11T06:19:33.198Z,10.77
2017-09-11T06:22:00.845Z,9.20
2017-09-11T06:24:28.437Z,9.60
2017-09-11T06:26:56.025Z,9.00
2017-09-11T06:29:23.609Z,7.73
2017-09-11T06:31:51.211Z,7.73
2017-09-11T06:34:18.816Z,7.80
2017-09-11T06:36:47.196Z,8.40
2017-09-11T06:39:15.556Z,6.90
2017-09-11T06:41:43.170Z,8.27
2017-09-11T06:44:10.790Z,7.53
2017-09-11T06:46:39.137Z,6.83
2017-09-11T06:49:06.752Z,6.83
2017-09-11T06:51:34.376Z,7.20
2017-09-11T06:54:01.998Z,7.50
2017-09-11T06:56:29.626Z,7.13
2017-09-11T06:58:57.257Z,6.03
2017-09-11T07:01:24.873Z,5.20
2017-09-11T07:03:52.653Z,5.10
2017-09-11T07:06:20.277Z,5.50
2017-09-11T07:08:47.890Z,5.30
2017-09-11T07:11:15.510Z,5.17
2017-09-11T07:13:43.093Z,4.10
2017-09-11T07:16:10.714Z,4.73
2017-09-11T07:18:38.345Z,4.33
2017-09-11T07:21:05.954Z,4.10
2017-09-11T07:23:33.608Z,4.10
2017-09-11T07:26:01.238Z,3.30
2017-09-11T07:28:28.882Z,3.83
2017-09-11T07:30:56.505Z,3.80
2017-09-11T07:33:24.185Z,3.90
2017-09-11T07:35:51.771Z,3.90
2017-09-11T07:38:19.386Z,3.40
2017-09-11T07:40:46.972Z,3.53
2017-09-11T07:43:14.599Z,3.60
2017-09-11T07:45:42.212Z,3.20
2017-09-11T07:48:09.821Z,3.00
2017-09-11T07:50:37.466Z,3.47
2017-09-11T07:53:05.100Z,3.43
2017-09-11T07:55:32.864Z,2.80
2017-09-11T07:58:00.489Z,3.37
2017-09-11T08:00:28.201Z,4.10
2017-09-11T08:02:55.815Z,5.40
2017-09-11T08:05:23.434Z,4.60
2017-09-11T08:07:51.019Z,3.87
2017-09-11T08:10:18.656Z,3.77
2017-09-11T08:12:46.309Z,4.10
2017-09-11T08:15:13.942Z,4.23
2017-09-11T08:17:41.549Z,3.87
2017-09-11T08:20:09.172Z,5.03
2017-09-11T08:22:36.783Z,4.80
2017-09-11T08:25:04.402Z,3.93
2017-09-11T08:27:33.214Z,4.83
2017-09-11T08:30:00.875Z,5.17
2017-09-11T08:32:28.558Z,5.20
2017-09-11T08:34:56.181Z,5.87
2017-09-11T08:37:23.738Z,4.80
2017-09-11T08:39:51.367Z,4.40
2017-09-11T08:42:19.795Z,3.77
2017-09-11T08:44:47.459Z,3.43
2017-09-11T08:47:15.126Z,3.20
2017-09-11T08:49:42.764Z,3.73
2017-09-11T08:52:10.410Z,3.37
2017-09-11T08:54:38.087Z,3.93
2017-09-11T08:57:05.694Z,3.47
2017-09-11T08:59:33.317Z,3.30
2017-09-11T09:02:00.963Z,2.80
2017-09-11T09:04:28.536Z,3.07
2017-09-11T09:06:56.146Z,2.90
2017-09-11T09:09:23.720Z,3.43
2017-09-11T09:11:53.279Z,3.40
2017-09-11T09:14:20.916Z,3.00
2017-09-11T09:16:48.527Z,3.30
2017-09-11T09:19:16.150Z,3.60
2017-09-11T09:21:43.778Z,2.70
2017-09-11T09:24:11.421Z,3.10
2017-09-11T09:26:38.997Z,3.40
2017-09-11T09:29:06.579Z,2.90
2017-09-11T09:31:34.574Z,2.77
2017-09-11T09:34:02.206Z,2.80
2017-09-11T09:36:29.814Z,2.87
2017-09-11T09:38:57.430Z,2.80
2017-09-11T09:41:25.132Z,3.03
2017-09-11T09:43:52.712Z,2.50
2017-09-11T09:46:20.295Z,2.63
2017-09-11T09:48:47.934Z,3.63
2017-09-11T09:51:15.557Z,3.77
2017-09-11T09:53:43.194Z,4.60
2017-09-11T09:56:10.776Z,4.37
2017-09-11T09:58:38.362Z,4.50
2017-09-11T10:01:05.982Z,4.10
2017-09-11T10:03:33.558Z,3.62
2017-09-11T10:06:01.141Z,3.70
2017-09-11T10:08:28.751Z,3.47
2017-09-11T10:10:56.322Z,3.55
2017-09-11T10:13:23.953Z,4.28
2017-09-11T10:15:51.557Z,3.80
2017-09-11T10:18:19.180Z,3.65
2017-09-11T10:20:46.858Z,3.30
2017-09-11T10:23:14.475Z,3.30
2017-09-11T10:25:42.100Z,2.40
2017-09-11T10:28:09.738Z,2.30
2017-09-11T10:30:37.326Z,2.80
2017-09-11T10:33:04.919Z,2.45
2017-09-11T10:35:33.272Z,2.60
2017-09-11T10:38:00.928Z,2.90
2017-09-11T10:40:28.552Z,2.30
2017-09-11T10:42:56.133Z,2.35
2017-09-11T10:45:23.762Z,2.45
2017-09-11T10:47:51.491Z,2.70
2017-09-11T10:50:19.930Z,5.05
2017-09-11T10:52:47.568Z,3.60
2017-09-11T10:55:15.149Z,2.83
2017-09-11T10:57:42.786Z,3.20
2017-09-11T11:00:10.482Z,3.83
2017-09-11T11:02:38.114Z,4.12
2017-09-11T11:05:05.733Z,4.62
2017-09-11T11:07:33.365Z,4.13
2017-09-11T11:10:00.938Z,3.80
2017-09-11T11:12:28.558Z,3.00
2017-09-11T11:14:56.227Z,3.00
2017-09-11T11:17:23.821Z,3.40
2017-09-11T11:19:51.467Z,2.90
2017-09-11T11:22:19.110Z,2.90
2017-09-11T11:24:46.733Z,2.90
2017-09-11T11:27:15.143Z,2.50
2017-09-11T11:29:42.723Z,2.30
2017-09-11T11:32:10.371Z,2.30
2017-09-11T11:34:37.953Z,2.00
2017-09-11T11:37:05.650Z,1.80
2017-09-11T11:39:33.247Z,2.00
2017-09-11T11:42:00.918Z,1.80
2017-09-11T11:44:28.563Z,1.87
2017-09-11T11:46:56.368Z,1.60
2017-09-11T11:49:24.015Z,1.60
2017-09-11T11:51:51.668Z,1.60
2017-09-11T11:54:19.390Z,1.77
2017-09-11T11:56:46.977Z,1.77
2017-09-11T11:59:14.598Z,1.60
2017-09-11T12:01:42.239Z,1.70
2017-09-11T12:04:09.878Z,1.90
2017-09-11T12:06:37.492Z,2.50
2017-09-11T12:09:05.135Z,1.80
2017-09-11T12:11:32.775Z,2.37
2017-09-11T12:14:00.413Z,11.12
2017-09-11T12:16:28.038Z,9.50
2017-09-11T12:18:55.613Z,6.60
2017-09-11T12:21:24.010Z,1.80
2017-09-11T12:23:51.698Z,1.92
2017-09-11T12:26:19.296Z,1.80
2017-09-11T12:28:46.903Z,1.60
2017-09-11T12:31:14.540Z,1.65
2017-09-11T12:33:42.972Z,1.52
2017-09-11T12:36:10.547Z,1.50
2017-09-11T12:38:38.166Z,1.73
2017-09-11T12:41:05.846Z,1.77
2017-09-11T12:43:34.231Z,1.85
2017-09-11T12:46:01.803Z,2.17
2017-09-11T12:48:29.383Z,2.05
2017-09-11T12:50:57.000Z,1.70
2017-09-11T12:53:24.589Z,1.80
2017-09-11T12:55:52.208Z,2.10
2017-09-11T12:58:19.826Z,2.30
2017-09-11T13:00:47.456Z,2.20
2017-09-11T13:03:15.122Z,2.10
2017-09-11T13:05:42.733Z,2.20
2017-09-11T13:08:10.373Z,2.47
2017-09-11T13:10:37.991Z,2.37
2017-09-11T13:13:05.583Z,1.75
2017-09-11T13:15:33.226Z,1.80
2017-09-11T13:18:00.856Z,2.15
2017-09-11T13:20:28.448Z,2.05
2017-09-11T13:22:56.103Z,3.12
2017-09-11T13:25:23.730Z,2.25
2017-09-11T13:27:51.382Z,5.30
2017-09-11T13:30:19.005Z,2.47
2017-09-11T13:32:46.663Z,2.37
2017-09-11T13:35:14.249Z,1.95
2017-09-11T13:37:41.823Z,2.20
2017-09-11T13:40:09.447Z,2.60
2017-09-11T13:42:37.028Z,1.95
2017-09-11T13:45:04.618Z,1.90
2017-09-11T13:47:32.256Z,1.98
2017-09-11T13:49:59.837Z,2.08
2017-09-11T13:52:27.477Z,1.92
2017-09-11T13:54:55.102Z,2.00
2017-09-11T13:57:22.707Z,1.85
2017-09-11T13:59:50.511Z,2.00
2017-09-11T14:02:19.836Z,2.22
2017-09-11T14:04:47.503Z,2.20
2017-09-11T14:07:15.156Z,1.90
2017-09-11T14:09:42.797Z,1.85
2017-09-11T14:12:10.453Z,1.85
2017-09-11T14:14:38.183Z,2.00
2017-09-11T14:17:05.889Z,2.30
2017-09-11T14:19:33.488Z,2.40
2017-09-11T14:22:01.177Z,3.20
2017-09-11T14:24:28.825Z,2.15
2017-09-11T14:26:56.444Z,2.33
2017-09-11T14:29:24.077Z,2.60
2017-09-11T14:31:51.727Z,2.10
2017-09-11T14:34:20.106Z,1.70
2017-09-11T14:36:47.788Z,2.60
2017-09-11T14:39:15.407Z,2.30
2017-09-11T14:41:43.028Z,2.15
2017-09-11T14:44:10.648Z,2.12
2017-09-11T14:46:38.316Z,2.53
2017-09-11T14:49:05.932Z,2.40
2017-09-11T14:51:33.542Z,1.98
2017-09-11T14:54:02.017Z,1.83
2017-09-11T14:56:29.640Z,1.85
2017-09-11T14:58:57.354Z,2.03
2017-09-11T15:01:25.750Z,2.30
2017-09-11T15:03:53.325Z,1.75
2017-09-11T15:06:20.920Z,1.90
2017-09-11T15:08:48.533Z,2.42
2017-09-11T15:11:16.113Z,2.17
2017-09-11T15:13:43.758Z,1.85
2017-09-11T15:16:11.348Z,2.50
2017-09-11T15:18:38.959Z,2.17
2017-09-11T15:21:07.335Z,1.73
2017-09-11T15:23:34.991Z,1.95
2017-09-11T15:26:03.390Z,2.15
2017-09-11T15:28:30.939Z,1.90
2017-09-11T15:30:58.560Z,2.37
2017-09-11T15:33:26.195Z,2.20
2017-09-11T15:35:53.876Z,2.12
2017-09-11T15:38:21.506Z,2.35
2017-09-11T15:40:49.091Z,2.40
2017-09-11T15:43:16.803Z,2.60
2017-09-11T15:45:44.443Z,2.85
2017-09-11T15:48:12.016Z,2.83
2017-09-11T15:50:39.666Z,3.10
2017-09-11T15:53:07.307Z,2.90
2017-09-11T15:55:35.002Z,2.35
2017-09-11T15:58:02.631Z,2.50
2017-09-11T16:00:30.257Z,3.10
2017-09-11T16:02:57.878Z,3.10
2017-09-11T16:05:27.652Z,2.50
2017-09-11T16:07:55.272Z,2.70
2017-09-11T16:10:23.653Z,2.37
2017-09-11T16:12:51.276Z,2.30
2017-09-11T16:15:18.913Z,2.65
2017-09-11T16:17:46.530Z,2.42
2017-09-11T16:20:14.104Z,2.55
2017-09-11T16:22:41.730Z,2.42
2017-09-11T16:25:09.363Z,2.58
2017-09-11T16:27:36.989Z,3.03
2017-09-11T16:30:04.610Z,2.70
2017-09-11T16:32:32.230Z,3.12
2017-09-11T16:34:59.837Z,4.00
2017-09-11T16:37:27.613Z,4.22
2017-09-11T16:39:55.323Z,3.28
2017-09-11T16:42:22.935Z,4.30
2017-09-11T16:44:50.556Z,4.00
2017-09-11T16:47:18.171Z,5.80
2017-09-11T16:49:45.790Z,5.97
2017-09-11T16:52:13.372Z,5.90
2017-09-11T16:54:40.959Z,6.12
2017-09-11T16:57:08.678Z,7.00
2017-09-11T16:59:36.235Z,6.75
2017-09-11T17:02:03.863Z,7.05
2017-09-11T17:04:31.436Z,8.13
2017-09-11T17:06:59.065Z,8.35
2017-09-11T17:09:26.693Z,7.85
2017-09-11T17:11:54.325Z,7.85
2017-09-11T17:14:21.907Z,7.93
2017-09-11T17:16:49.500Z,8.30
2017-09-11T17:19:17.101Z,7.87
2017-09-11T17:21:44.736Z,8.70
2017-09-11T17:24:12.317Z,8.18
2017-09-11T17:26:39.946Z,7.78
2017-09-11T17:29:07.567Z,7.80
2017-09-11T17:31:35.195Z,7.62
2017-09-11T17:34:02.797Z,8.23
2017-09-11T17:36:30.427Z,8.30
2017-09-11T17:38:58.106Z,7.75
2017-09-11T17:41:25.738Z,6.60
2017-09-11T17:43:53.352Z,6.62
2017-09-11T17:46:20.996Z,6.37
2017-09-11T17:48:48.972Z,6.95
2017-09-11T17:51:16.611Z,6.50
2017-09-11T17:53:46.168Z,6.50
2017-09-11T17:56:14.581Z,6.65
2017-09-11T17:58:43.729Z,6.57
2017-09-11T18:01:11.594Z,6.30
2017-09-11T18:03:39.314Z,6.60
2017-09-11T18:06:10.343Z,6.03
2017-09-11T18:08:43.809Z,7.10
2017-09-11T18:11:13.055Z,7.85
2017-09-11T18:13:41.519Z,6.57
2017-09-11T18:16:09.105Z,8.10
2017-09-11T18:18:36.790Z,7.43
2017-09-11T18:21:04.560Z,7.43
2017-09-11T18:23:32.175Z,6.95
2017-09-11T18:25:59.763Z,7.78
2017-09-11T18:28:27.401Z,7.45
2017-09-11T18:30:54.984Z,8.13
2017-09-11T18:33:25.080Z,7.90
2017-09-11T18:35:52.755Z,8.23
2017-09-11T18:38:21.041Z,7.60
2017-09-11T18:40:51.493Z,6.80
2017-09-11T18:43:19.994Z,6.80
2017-09-11T18:45:51.924Z,7.43
2017-09-11T18:49:02.859Z,8.70
2017-09-11T18:51:30.710Z,8.20
2017-09-11T18:53:58.354Z,8.38
2017-09-11T18:56:25.994Z,9.43
2017-09-11T18:58:53.579Z,8.07
2017-09-11T19:01:21.974Z,8.10
2017-09-11T19:03:49.648Z,8.55
2017-09-11T19:06:17.558Z,7.53
2017-09-11T19:08:45.151Z,7.07
2017-09-11T19:11:12.782Z,7.03
2017-09-11T19:13:40.449Z,6.82
2017-09-11T19:16:08.187Z,7.00
2017-09-11T19:18:35.860Z,7.00
2017-09-11T19:21:03.840Z,6.70
2017-09-11T19:23:31.479Z,5.07
2017-09-11T19:25:59.111Z,5.50
2017-09-11T19:28:26.739Z,5.25
2017-09-11T19:30:54.366Z,5.10
2017-09-11T19:33:21.984Z,5.37
2017-09-11T19:35:50.533Z,5.28
2017-09-11T19:38:18.182Z,6.60
2017-09-11T19:40:45.890Z,5.90
2017-09-11T19:43:14.298Z,6.10
2017-09-11T19:45:42.830Z,5.22
2017-09-11T19:48:10.425Z,4.85
2017-09-11T19:50:38.839Z,5.10
2017-09-11T19:53:06.469Z,4.80
2017-09-11T19:55:34.825Z,5.30
2017-09-11T19:58:02.448Z,5.70
2017-09-11T20:00:30.062Z,5.50
2017-09-11T20:02:58.443Z,5.60
2017-09-11T20:05:26.836Z,5.28
2017-09-11T20:07:54.450Z,6.05
2017-09-11T20:10:22.087Z,4.90
2017-09-11T20:12:49.702Z,5.40
2017-09-11T20:15:17.354Z,4.55
2017-09-11T20:17:44.930Z,5.05
2017-09-11T20:20:12.508Z,4.95
2017-09-11T20:22:40.093Z,4.60
2017-09-11T20:25:07.685Z,4.22
2017-09-11T20:27:35.305Z,3.80
2017-09-11T20:30:02.939Z,5.82
2017-09-11T20:32:31.322Z,4.45
2017-09-11T20:34:58.981Z,3.28
2017-09-11T20:37:26.602Z,3.70
2017-09-11T20:39:54.219Z,3.90
2017-09-11T20:42:21.849Z,3.75
2017-09-11T20:44:49.475Z,4.12
2017-09-11T20:47:17.108Z,3.45
2017-09-11T20:49:44.797Z,5.50
2017-09-11T20:52:12.410Z,4.00
2017-09-11T20:54:40.800Z,4.40
2017-09-11T20:57:08.420Z,4.43
2017-09-11T20:59:36.042Z,3.92
2017-09-11T21:02:03.594Z,3.87
2017-09-11T21:04:31.176Z,5.40
2017-09-11T21:06:58.784Z,4.70
2017-09-11T21:09:26.365Z,4.85
2017-09-11T21:11:53.954Z,4.95
2017-09-11T21:14:21.608Z,4.53
2017-09-11T21:16:49.215Z,5.32
2017-09-11T21:19:16.892Z,4.85
2017-09-11T21:21:44.512Z,4.95
2017-09-11T21:24:12.095Z,5.70
2017-09-11T21:26:39.701Z,4.70
2017-09-11T21:29:07.319Z,4.82
2017-09-11T21:31:34.897Z,4.20
2017-09-11T21:34:03.283Z,4.65
2017-09-11T21:36:30.916Z,4.47
2017-09-11T21:38:58.546Z,4.40
2017-09-11T21:41:26.134Z,5.65
2017-09-11T21:43:53.769Z,4.30
2017-09-11T21:46:21.348Z,4.15
2017-09-11T21:48:49.009Z,4.60
2017-09-11T21:51:16.628Z,4.70
2017-09-11T21:53:44.213Z,4.68
2017-09-11T21:56:11.836Z,3.95
2017-09-11T21:58:39.460Z,3.80
2017-09-11T22:01:07.165Z,4.47
2017-09-11T22:03:34.748Z,3.95
2017-09-11T22:06:02.341Z,3.25
2017-09-11T22:08:29.947Z,4.55
2017-09-11T22:10:57.570Z,2.90
2017-09-11T22:13:25.217Z,2.67
2017-09-11T22:15:52.859Z,2.85
2017-09-11T22:18:20.479Z,2.20
2017-09-11T22:20:48.119Z,1.73
2017-09-11T22:23:15.786Z,3.12
2017-09-11T22:25:43.386Z,2.60
2017-09-11T22:28:11.072Z,2.53
2017-09-11T22:30:38.705Z,2.90
2017-09-11T22:33:06.327Z,2.40
2017-09-11T22:35:33.942Z,2.10
2017-09-11T22:38:01.566Z,2.22
2017-09-11T22:40:29.179Z,2.30
2017-09-11T22:42:56.847Z,2.40
2017-09-11T22:45:24.497Z,1.87
2017-09-11T22:47:52.110Z,2.22
2017-09-11T22:50:19.758Z,2.30
2017-09-11T22:52:47.390Z,1.85
2017-09-11T22:55:15.078Z,2.08
2017-09-11T22:57:42.667Z,2.00
2017-09-11T23:00:11.061Z,2.20
2017-09-11T23:02:38.757Z,2.22
2017-09-11T23:05:06.375Z,1.90
2017-09-11T23:07:34.072Z,2.20
2017-09-11T23:10:01.693Z,2.00
2017-09-11T23:12:29.319Z,1.62
2017-09-11T23:14:56.931Z,1.95
2017-09-11T23:17:24.503Z,1.90
2017-09-11T23:19:52.895Z,2.05
2017-09-11T23:22:20.504Z,1.62
2017-09-11T23:24:48.127Z,1.73
2017-09-11T23:27:15.758Z,1.80
2017-09-11T23:29:43.380Z,2.40
2017-09-11T23:32:11.041Z,2.00
2017-09-11T23:34:39.282Z,1.80
2017-09-11T23:37:06.859Z,1.73
2017-09-11T23:39:34.479Z,1.87
2017-09-11T23:42:02.095Z,1.83
2017-09-11T23:44:29.726Z,1.80
2017-09-11T23:46:57.342Z,1.73
2017-09-11T23:49:24.981Z,2.10
2017-09-11T23:51:52.608Z,1.80
2017-09-11T23:54:20.283Z,1.55
2017-09-11T23:56:47.904Z,2.00
2017-09-11T23:59:15.514Z,1.70
